createdAt,value
2018-01-12T00:02:52.733Z,18.15
2018-01-12T00:06:03.019Z,17.62
2018-01-12T00:09:12.738Z,19.27
2018-01-12T00:12:22.789Z,16.40
2018-01-12T00:15:32.602Z,17.33
2018-01-12T00:18:43.351Z,18.35
2018-01-12T00:21:53.984Z,17.10
2018-01-12T00:25:05.010Z,15.00
2018-01-12T00:28:14.776Z,17.67
2018-01-12T00:31:25.239Z,18.12
2018-01-12T00:34:35.981Z,20.05
2018-01-12T00:37:46.071Z,17.55
2018-01-12T00:40:55.745Z,18.55
2018-01-12T00:44:06.310Z,23.15
2018-01-12T00:47:16.017Z,21.42
2018-01-12T00:50:25.945Z,18.17
2018-01-12T00:53:35.594Z,17.52
2018-01-12T00:56:45.571Z,15.48
2018-01-12T00:59:55.186Z,17.58
2018-01-12T01:03:05.115Z,15.63
2018-01-12T01:06:15.769Z,14.63
2018-01-12T01:09:25.779Z,17.95
2018-01-12T01:12:36.238Z,20.02
2018-01-12T01:15:46.182Z,17.80
2018-01-12T01:18:56.236Z,17.23
2018-01-12T01:22:06.906Z,17.48
2018-01-12T01:25:17.395Z,19.05
2018-01-12T01:28:27.493Z,16.20
2018-01-12T01:31:37.335Z,15.75
2018-01-12T01:34:47.649Z,16.77
2018-01-12T01:37:57.725Z,15.65
2018-01-12T01:41:07.984Z,16.65
2018-01-12T01:44:18.200Z,15.02
2018-01-12T01:47:28.130Z,14.63
2018-01-12T01:50:38.332Z,15.15
2018-01-12T01:53:49.629Z,20.70
2018-01-12T01:57:00.134Z,15.60
2018-01-12T02:00:10.079Z,17.55
2018-01-12T02:03:20.054Z,15.68
2018-01-12T02:06:29.954Z,20.20
2018-01-12T02:09:40.084Z,16.20
2018-01-12T02:12:49.691Z,15.20
2018-01-12T02:15:59.821Z,18.92
2018-01-12T02:19:09.822Z,20.45
2018-01-12T02:22:20.462Z,19.58
2018-01-12T02:25:30.638Z,16.58
2018-01-12T02:28:40.550Z,15.45
2018-01-12T02:31:51.282Z,18.62
2018-01-12T02:35:03.922Z,16.30
2018-01-12T02:38:13.814Z,16.40
2018-01-12T02:41:23.813Z,16.80
2018-01-12T02:44:34.934Z,17.73
2018-01-12T02:47:45.349Z,16.60
2018-01-12T02:50:55.983Z,14.95
2018-01-12T02:54:05.751Z,17.62
2018-01-12T02:57:15.848Z,17.58
2018-01-12T03:00:26.360Z,15.95
2018-01-12T03:03:36.646Z,13.07
2018-01-12T03:06:46.492Z,15.10
2018-01-12T03:09:56.556Z,16.12
2018-01-12T03:13:06.271Z,16.25
2018-01-12T03:16:16.900Z,21.83
2018-01-12T03:19:26.863Z,15.40
2018-01-12T03:22:37.626Z,15.38
2018-01-12T03:25:47.776Z,15.93
2018-01-12T03:28:58.392Z,17.70
2018-01-12T03:32:08.414Z,14.95
2018-01-12T03:35:18.946Z,14.60
2018-01-12T03:38:29.109Z,15.45
2018-01-12T03:41:39.034Z,13.62
2018-01-12T03:44:49.142Z,14.23
2018-01-12T03:47:59.220Z,15.55
2018-01-12T03:51:11.401Z,15.95
2018-01-12T03:54:21.903Z,14.55
2018-01-12T03:57:32.107Z,16.62
2018-01-12T04:00:42.651Z,16.75
2018-01-12T04:03:52.911Z,15.35
2018-01-12T04:07:03.101Z,15.55
2018-01-12T04:10:13.892Z,16.45
2018-01-12T04:13:24.485Z,14.10
2018-01-12T04:16:35.189Z,17.90
2018-01-12T04:19:45.386Z,12.18
2018-01-12T04:22:56.058Z,15.10
2018-01-12T04:26:06.181Z,14.90
2018-01-12T04:29:16.902Z,16.77
2018-01-12T04:32:26.977Z,14.10
2018-01-12T04:35:36.919Z,16.30
2018-01-12T04:38:47.154Z,16.58
2018-01-12T04:41:57.074Z,16.77
2018-01-12T04:45:07.511Z,14.25
2018-01-12T04:48:18.186Z,18.40
2018-01-12T04:51:28.507Z,16.35
2018-01-12T04:54:38.552Z,13.55
2018-01-12T04:57:48.803Z,14.77
2018-01-12T05:00:58.826Z,18.25
2018-01-12T05:04:09.002Z,15.10
2018-01-12T05:07:18.950Z,16.45
2018-01-12T05:10:29.533Z,15.15
2018-01-12T05:13:39.646Z,14.65
2018-01-12T05:16:49.868Z,17.35
2018-01-12T05:19:59.770Z,24.40
2018-01-12T05:23:10.858Z,15.70
2018-01-12T05:26:21.215Z,17.17
2018-01-12T05:29:31.109Z,15.15
2018-01-12T05:32:41.921Z,15.15
2018-01-12T05:35:52.530Z,16.15
2018-01-12T05:39:02.155Z,16.87
2018-01-12T05:42:12.921Z,16.70
2018-01-12T05:45:22.928Z,17.05
2018-01-12T05:48:33.341Z,16.62
2018-01-12T05:51:43.822Z,17.50
2018-01-12T05:54:54.018Z,15.73
2018-01-12T05:58:04.346Z,15.02
2018-01-12T06:01:25.938Z,14.55
2018-01-12T06:04:47.980Z,15.75
2018-01-12T06:07:58.533Z,15.60
2018-01-12T06:11:09.397Z,13.30
2018-01-12T06:14:19.973Z,13.23
2018-01-12T06:17:30.331Z,15.88
2018-01-12T06:20:41.524Z,16.25
2018-01-12T06:23:51.439Z,15.20
2018-01-12T06:27:01.327Z,18.37
2018-01-12T06:30:11.652Z,20.58
2018-01-12T06:33:22.287Z,16.90
2018-01-12T06:36:32.527Z,16.40
2018-01-12T06:39:43.080Z,14.35
2018-01-12T06:42:53.419Z,17.02
2018-01-12T06:46:04.460Z,14.93
2018-01-12T06:49:14.970Z,14.93
2018-01-12T06:52:25.245Z,15.05
2018-01-12T06:55:34.961Z,18.87
2018-01-12T06:58:44.607Z,15.45
2018-01-12T07:01:54.594Z,19.73
2018-01-12T07:05:04.860Z,23.12
2018-01-12T07:08:15.887Z,24.55
2018-01-12T07:11:26.600Z,22.85
2018-01-12T07:14:37.005Z,18.50
2018-01-12T07:17:47.276Z,18.23
2018-01-12T07:21:08.555Z,16.33
2018-01-12T07:24:19.078Z,19.33
2018-01-12T07:27:29.279Z,16.60
2018-01-12T07:30:39.496Z,18.37
2018-01-12T07:33:50.615Z,18.42
2018-01-12T07:37:01.304Z,20.65
2018-01-12T07:40:11.956Z,14.73
2018-01-12T07:43:23.199Z,19.87
2018-01-12T07:46:33.769Z,20.73
2018-01-12T07:49:44.087Z,18.42
2018-01-12T07:52:59.926Z,16.08
2018-01-12T07:56:10.126Z,17.37
2018-01-12T07:59:20.154Z,18.80
2018-01-12T08:02:36.185Z,16.02
2018-01-12T08:05:47.514Z,17.08
2018-01-12T08:08:57.670Z,16.05
2018-01-12T08:12:07.952Z,19.25
2018-01-12T08:15:17.857Z,19.48
2018-01-12T08:18:27.544Z,17.00
2018-01-12T08:21:37.516Z,20.35
2018-01-12T08:24:48.054Z,18.92
2018-01-12T08:27:58.346Z,18.48
2018-01-12T08:31:09.025Z,22.25
2018-01-12T08:34:19.691Z,21.40
2018-01-12T08:37:30.639Z,17.77
2018-01-12T08:40:41.095Z,19.77
2018-01-12T08:43:50.982Z,17.77
2018-01-12T08:47:01.219Z,19.98
2018-01-12T08:50:11.569Z,22.77
2018-01-12T08:53:21.714Z,21.30
2018-01-12T08:56:32.256Z,18.23
2018-01-12T08:59:42.417Z,23.75
2018-01-12T09:02:52.657Z,20.60
2018-01-12T09:06:03.177Z,21.27
2018-01-12T09:09:13.835Z,27.67
2018-01-12T09:12:24.064Z,19.92
2018-01-12T09:15:34.108Z,18.15
2018-01-12T09:18:56.220Z,20.80
2018-01-12T09:22:09.905Z,16.58
2018-01-12T09:25:25.596Z,17.85
2018-01-12T09:28:36.159Z,19.08
2018-01-12T09:31:46.219Z,19.02
2018-01-12T09:35:04.141Z,19.05
2018-01-12T09:38:23.013Z,21.70
2018-01-12T09:41:32.925Z,20.65
2018-01-12T09:44:43.529Z,17.40
2018-01-12T09:48:00.151Z,23.12
2018-01-12T09:51:10.590Z,27.45
2018-01-12T09:54:20.828Z,25.30
2018-01-12T09:57:30.617Z,26.40
2018-01-12T10:00:47.622Z,22.95
2018-01-12T10:03:57.463Z,24.50
2018-01-12T10:07:17.392Z,20.70
2018-01-12T10:10:27.370Z,22.48
2018-01-12T10:13:38.717Z,24.60
2018-01-12T10:16:49.138Z,24.95
2018-01-12T10:20:15.202Z,29.00
2018-01-12T10:23:25.598Z,23.12
2018-01-12T10:26:35.544Z,31.95
2018-01-12T10:29:59.024Z,30.42
2018-01-12T10:33:08.802Z,27.08
2018-01-12T10:36:19.749Z,29.40
2018-01-12T10:39:29.714Z,33.33
2018-01-12T10:42:40.031Z,28.35
2018-01-12T10:46:01.106Z,26.17
2018-01-12T10:52:46.078Z,31.33
2018-01-12T10:55:56.140Z,22.27
2018-01-12T10:59:05.891Z,29.87
2018-01-12T11:02:16.234Z,31.17
2018-01-12T11:05:28.245Z,33.45
2018-01-12T11:08:38.480Z,47.55
2018-01-12T11:11:48.863Z,27.55
2018-01-12T11:14:59.087Z,29.75
2018-01-12T11:18:08.966Z,27.20
2018-01-12T11:21:18.934Z,30.08
2018-01-12T11:24:28.900Z,25.75
2018-01-12T11:27:39.279Z,28.23
2018-01-12T11:30:50.650Z,26.75
2018-01-12T11:34:01.001Z,26.10
2018-01-12T11:37:11.078Z,24.30
2018-01-12T11:40:22.919Z,28.90
2018-01-12T11:43:33.769Z,23.55
2018-01-12T11:46:43.570Z,24.10
2018-01-12T11:49:54.949Z,26.08
2018-01-12T11:53:05.233Z,28.35
2018-01-12T11:56:15.917Z,27.45
2018-01-12T11:59:26.666Z,15.65
2018-01-12T12:02:37.593Z,24.67
2018-01-12T12:05:47.750Z,24.83
2018-01-12T12:08:57.631Z,25.33
2018-01-12T12:12:08.230Z,24.42
2018-01-12T12:15:18.977Z,25.85
2018-01-12T12:18:29.541Z,26.27
2018-01-12T12:21:40.237Z,19.58
2018-01-12T12:24:50.682Z,25.37
2018-01-12T12:28:01.495Z,19.10
2018-01-12T12:31:11.389Z,20.83
2018-01-12T12:34:22.582Z,26.80
2018-01-12T12:37:32.408Z,22.05
2018-01-12T12:40:42.985Z,20.45
2018-01-12T12:43:53.998Z,28.35
2018-01-12T12:47:05.066Z,15.68
2018-01-12T12:50:15.188Z,28.15
2018-01-12T12:53:25.019Z,31.98
2018-01-12T12:56:34.845Z,28.23
2018-01-12T12:59:44.665Z,23.50
2018-01-12T13:02:54.530Z,21.25
2018-01-12T13:06:04.257Z,27.08
2018-01-12T13:09:14.874Z,26.92
2018-01-12T13:12:24.778Z,27.27
2018-01-12T13:15:34.643Z,31.15
2018-01-12T13:18:44.617Z,25.65
2018-01-12T13:21:56.258Z,26.25
2018-01-12T13:25:06.561Z,31.60
2018-01-12T13:28:17.763Z,26.00
2018-01-12T13:31:28.460Z,29.80
2018-01-12T13:34:39.203Z,32.53
2018-01-12T13:37:49.359Z,27.62
2018-01-12T13:40:59.020Z,23.70
2018-01-12T13:44:09.227Z,19.05
2018-01-12T13:47:19.966Z,22.05
2018-01-12T13:50:30.885Z,22.25
2018-01-12T13:53:40.840Z,22.62
2018-01-12T13:56:51.574Z,20.20
2018-01-12T14:00:01.441Z,23.25
2018-01-12T14:03:11.408Z,24.70
2018-01-12T14:06:21.994Z,23.30
2018-01-12T14:09:32.418Z,21.48
2018-01-12T14:12:42.339Z,20.35
2018-01-12T14:15:52.390Z,24.15
2018-01-12T14:19:02.450Z,26.10
2018-01-12T14:22:12.602Z,19.45
2018-01-12T14:25:24.019Z,23.08
2018-01-12T14:28:34.364Z,19.67
2018-01-12T14:31:44.406Z,25.83
2018-01-12T14:34:55.444Z,27.65
2018-01-12T14:38:05.706Z,26.02
2018-01-12T14:41:15.937Z,24.98
2018-01-12T14:44:26.680Z,25.77
2018-01-12T14:47:36.986Z,25.88
2018-01-12T14:50:47.314Z,28.83
2018-01-12T14:53:57.113Z,24.45
2018-01-12T14:57:06.920Z,22.70
2018-01-12T15:00:16.825Z,22.62
2018-01-12T15:03:26.913Z,24.20
2018-01-12T15:06:36.632Z,22.08
2018-01-12T15:09:48.212Z,20.75
2018-01-12T15:12:58.316Z,24.75
2018-01-12T15:16:08.478Z,21.50
2018-01-12T15:19:19.102Z,21.27
2018-01-12T15:22:29.891Z,19.60
2018-01-12T15:25:41.948Z,21.70
2018-01-12T15:28:52.904Z,22.23
2018-01-12T15:32:03.850Z,19.70
2018-01-12T15:35:15.131Z,19.75
2018-01-12T15:38:25.573Z,21.75
2018-01-12T15:41:37.403Z,21.42
2018-01-12T15:44:47.858Z,22.85
2018-01-12T15:47:59.452Z,19.67
2018-01-12T15:51:10.043Z,21.12
2018-01-12T15:54:20.716Z,22.35
2018-01-12T15:57:30.688Z,18.73
2018-01-12T16:00:41.396Z,18.58
2018-01-12T16:03:52.218Z,19.08
2018-01-12T16:07:02.585Z,18.20
2018-01-12T16:10:12.658Z,21.35
2018-01-12T16:13:23.021Z,12.90
2018-01-12T16:16:32.895Z,19.40
2018-01-12T16:19:43.905Z,24.10
2018-01-12T16:22:54.324Z,17.87
2018-01-12T16:26:03.819Z,23.08
2018-01-12T16:29:13.754Z,21.42
2018-01-12T16:32:24.225Z,20.42
2018-01-12T16:35:34.364Z,22.87
2018-01-12T16:38:44.382Z,21.58
2018-01-12T16:41:54.077Z,18.67
2018-01-12T16:45:03.849Z,22.77
2018-01-12T16:48:13.659Z,20.27
2018-01-12T16:51:24.353Z,23.95
2018-01-12T16:54:36.026Z,23.77
2018-01-12T16:57:47.568Z,22.62
2018-01-12T17:00:58.049Z,18.23
2018-01-12T17:04:08.400Z,24.90
2018-01-12T17:07:18.772Z,21.90
2018-01-12T17:10:28.721Z,20.90
2018-01-12T17:13:39.812Z,20.02
2018-01-12T17:16:50.302Z,21.65
2018-01-12T17:20:00.225Z,20.95
2018-01-12T17:23:10.411Z,20.00
2018-01-12T17:26:20.221Z,19.45
2018-01-12T17:29:30.075Z,22.75
2018-01-12T17:32:40.587Z,22.77
2018-01-12T17:35:51.903Z,24.92
2018-01-12T17:39:02.198Z,21.77
2018-01-12T17:42:12.901Z,24.23
2018-01-12T17:45:24.626Z,24.00
2018-01-12T17:48:34.606Z,18.67
2018-01-12T17:51:45.336Z,22.73
2018-01-12T17:54:55.290Z,19.95
2018-01-12T17:58:05.110Z,20.40
2018-01-12T18:01:15.671Z,21.33
2018-01-12T18:04:25.696Z,20.10
2018-01-12T18:07:35.910Z,19.27
2018-01-12T18:10:45.909Z,16.10
2018-01-12T18:13:56.765Z,18.75
2018-01-12T18:17:06.845Z,18.60
2018-01-12T18:20:16.933Z,16.55
2018-01-12T18:23:26.839Z,17.33
2018-01-12T18:26:36.830Z,19.23
2018-01-12T18:29:46.413Z,21.67
2018-01-12T18:32:56.539Z,23.75
2018-01-12T18:36:07.256Z,24.33
2018-01-12T18:39:17.270Z,24.60
2018-01-12T18:42:27.216Z,19.95
2018-01-12T18:45:40.783Z,20.80
2018-01-12T18:48:52.254Z,19.00
2018-01-12T18:52:03.253Z,21.10
2018-01-12T18:55:14.628Z,20.30
2018-01-12T18:58:25.799Z,25.08
2018-01-12T19:01:36.987Z,21.45
2018-01-12T19:04:52.857Z,20.92
2018-01-12T19:08:05.104Z,14.80
2018-01-12T19:11:17.924Z,20.85
2018-01-12T19:14:29.411Z,17.65
2018-01-12T19:17:41.543Z,18.98
2018-01-12T19:20:55.204Z,19.10
2018-01-12T19:24:05.773Z,18.25
2018-01-12T19:27:16.811Z,19.60
2018-01-12T19:30:27.382Z,17.12
2018-01-12T19:33:38.102Z,17.08
2018-01-12T19:36:48.190Z,18.55
2018-01-12T19:39:58.061Z,17.90
2018-01-12T19:43:08.008Z,17.12
2018-01-12T19:46:18.597Z,21.08
2018-01-12T19:49:28.460Z,17.75
2018-01-12T19:52:38.893Z,17.17
2018-01-12T19:55:48.955Z,15.98
2018-01-12T19:58:59.561Z,16.27
2018-01-12T20:02:10.582Z,20.70
2018-01-12T20:05:21.386Z,48.78
2018-01-12T20:08:31.974Z,30.73
2018-01-12T20:11:42.099Z,24.50
2018-01-12T20:14:55.247Z,17.58
2018-01-12T20:18:06.337Z,22.00
2018-01-12T20:21:16.251Z,18.02
2018-01-12T20:24:26.497Z,19.70
2018-01-12T20:27:37.051Z,22.50
2018-01-12T20:30:47.093Z,21.17
2018-01-12T20:33:56.899Z,22.62
2018-01-12T20:37:07.483Z,21.73
2018-01-12T20:40:17.600Z,23.90
2018-01-12T20:43:28.650Z,25.50
2018-01-12T20:46:39.581Z,23.60
2018-01-12T20:49:49.758Z,32.88
2018-01-12T20:52:59.856Z,23.70
2018-01-12T20:56:11.229Z,27.33
2018-01-12T20:59:21.445Z,22.48
2018-01-12T21:02:31.558Z,24.48
2018-01-12T21:05:41.793Z,29.15
2018-01-12T21:08:51.908Z,29.95
2018-01-12T21:12:02.088Z,31.20
2018-01-12T21:15:12.224Z,32.13
2018-01-12T21:18:22.367Z,30.80
2018-01-12T21:21:32.757Z,28.27
2018-01-12T21:24:42.874Z,32.13
2018-01-12T21:27:53.363Z,22.70
2018-01-12T21:31:04.189Z,33.17
2018-01-12T21:34:14.195Z,27.27
2018-01-12T21:37:24.371Z,30.10
2018-01-12T21:40:34.571Z,25.75
2018-01-12T21:43:44.391Z,29.05
2018-01-12T21:46:55.072Z,28.70
2018-01-12T21:50:06.459Z,29.05
2018-01-12T21:53:16.376Z,29.70
2018-01-12T21:56:27.458Z,26.35
2018-01-12T21:59:39.716Z,33.45
2018-01-12T22:02:53.036Z,23.83
2018-01-12T22:06:04.523Z,28.08
2018-01-12T22:09:15.693Z,28.77
2018-01-12T22:12:26.406Z,31.10
2018-01-12T22:15:39.563Z,30.85
2018-01-12T22:18:51.727Z,29.42
2018-01-12T22:22:02.530Z,34.25
2018-01-12T22:25:13.651Z,32.63
2018-01-12T22:28:23.541Z,30.73
2018-01-12T22:31:33.823Z,30.42
2018-01-12T22:34:44.494Z,30.65
2018-01-12T22:37:55.287Z,31.12
2018-01-12T22:41:05.589Z,29.95
2018-01-12T22:44:16.009Z,30.27
2018-01-12T22:47:28.070Z,31.27
2018-01-12T22:50:39.590Z,34.05
2018-01-12T22:53:51.362Z,28.80
2018-01-12T22:57:02.260Z,30.00
2018-01-12T23:00:15.531Z,29.12
2018-01-12T23:03:27.672Z,32.60
2018-01-12T23:06:38.146Z,31.08
2018-01-12T23:09:49.104Z,34.03
2018-01-12T23:12:59.599Z,31.30
2018-01-12T23:16:09.855Z,34.60
2018-01-12T23:19:20.018Z,32.90
2018-01-12T23:22:30.560Z,28.17
2018-01-12T23:25:40.907Z,32.60
2018-01-12T23:28:51.235Z,28.75
2018-01-12T23:32:01.589Z,35.25
2018-01-12T23:35:12.407Z,34.65
2018-01-12T23:38:23.169Z,29.67
2018-01-12T23:41:34.112Z,35.63
2018-01-12T23:44:44.437Z,35.67
2018-01-12T23:47:54.662Z,30.08
2018-01-12T23:51:05.657Z,28.38
2018-01-12T23:54:17.038Z,33.50
2018-01-12T23:57:28.288Z,26.85
